sensor_id;sensor_type;location;lat;lon;timestamp;temperature;humidity
20141;DHT22;10231;47.702;9.826;2023-05-07T00:00:18;14.00;99.90
20141;DHT22;10231;47.702;9.826;2023-05-07T00:02:45;14.00;99.90
20141;DHT22;10231;47.702;9.826;2023-05-07T00:05:10;14.10;99.90
20141;DHT22;10231;47.702;9.826;2023-05-07T00:07:36;14.00;99.90
20141;DHT22;10231;47.702;9.826;2023-05-07T00:10:02;14.10;99.90
20141;DHT22;10231;47.702;9.826;2023-05-07T00:12:28;14.20;99.90
20141;DHT22;10231;47.702;9.826;2023-05-07T00:14:56;14.10;99.90
20141;DHT22;10231;47.702;9.826;2023-05-07T00:17:22;14.10;99.90
20141;DHT22;10231;47.702;9.826;2023-05-07T00:19:48;14.20;99.90
20141;DHT22;10231;47.702;9.826;2023-05-07T00:22:13;14.00;99.90
20141;DHT22;10231;47.702;9.826;2023-05-07T00:24:39;13.80;99.90
20141;DHT22;10231;47.702;9.826;2023-05-07T00:27:05;13.80;99.90
20141;DHT22;10231;47.702;9.826;2023-05-07T00:29:30;13.80;99.90
20141;DHT22;10231;47.702;9.826;2023-05-07T00:31:56;13.80;99.90
20141;DHT22;10231;47.702;9.826;2023-05-07T00:34:21;13.80;99.90
20141;DHT22;10231;47.702;9.826;2023-05-07T00:36:48;13.80;99.90
20141;DHT22;10231;47.702;9.826;2023-05-07T00:39:13;13.80;99.90
20141;DHT22;10231;47.702;9.826;2023-05-07T00:41:39;13.80;99.90
20141;DHT22;10231;47.702;9.826;2023-05-07T00:44:04;13.70;99.90
20141;DHT22;10231;47.702;9.826;2023-05-07T00:46:30;13.80;99.90
20141;DHT22;10231;47.702;9.826;2023-05-07T00:48:57;13.60;99.90
20141;DHT22;10231;47.702;9.826;2023-05-07T00:51:23;13.60;99.90
20141;DHT22;10231;47.702;9.826;2023-05-07T00:53:50;13.60;99.90
20141;DHT22;10231;47.702;9.826;2023-05-07T00:56:16;13.70;99.90
20141;DHT22;10231;47.702;9.826;2023-05-07T00:58:42;13.70;99.90
20141;DHT22;10231;47.702;9.826;2023-05-07T01:01:08;13.70;99.90
20141;DHT22;10231;47.702;9.826;2023-05-07T01:03:33;13.60;99.90
20141;DHT22;10231;47.702;9.826;2023-05-07T01:05:59;13.60;99.90
20141;DHT22;10231;47.702;9.826;2023-05-07T01:08:28;13.60;99.90
20141;DHT22;10231;47.702;9.826;2023-05-07T01:10:56;13.60;99.90
20141;DHT22;10231;47.702;9.826;2023-05-07T01:13:22;13.60;99.90
20141;DHT22;10231;47.702;9.826;2023-05-07T01:15:49;13.60;99.90
20141;DHT22;10231;47.702;9.826;2023-05-07T01:18:15;13.60;99.90
20141;DHT22;10231;47.702;9.826;2023-05-07T01:20:41;13.60;99.90
20141;DHT22;10231;47.702;9.826;2023-05-07T01:23:07;13.60;99.90
20141;DHT22;10231;47.702;9.826;2023-05-07T01:25:33;13.70;99.90
20141;DHT22;10231;47.702;9.826;2023-05-07T01:27:58;13.60;99.90
20141;DHT22;10231;47.702;9.826;2023-05-07T01:30:27;13.50;99.90
20141;DHT22;10231;47.702;9.826;2023-05-07T01:33:01;13.60;99.90
20141;DHT22;10231;47.702;9.826;2023-05-07T01:35:32;13.50;99.90
20141;DHT22;10231;47.702;9.826;2023-05-07T01:38:00;13.60;99.90
20141;DHT22;10231;47.702;9.826;2023-05-07T01:40:27;13.60;99.90
20141;DHT22;10231;47.702;9.826;2023-05-07T01:42:53;13.50;99.90
20141;DHT22;10231;47.702;9.826;2023-05-07T01:45:19;13.60;99.90
20141;DHT22;10231;47.702;9.826;2023-05-07T01:47:45;13.40;99.90
20141;DHT22;10231;47.702;9.826;2023-05-07T01:50:11;13.30;99.90
20141;DHT22;10231;47.702;9.826;2023-05-07T01:52:40;13.30;99.90
20141;DHT22;10231;47.702;9.826;2023-05-07T01:55:06;13.30;99.90
20141;DHT22;10231;47.702;9.826;2023-05-07T01:57:32;13.40;99.90
20141;DHT22;10231;47.702;9.826;2023-05-07T01:59:57;13.30;99.90
20141;DHT22;10231;47.702;9.826;2023-05-07T02:02:23;13.20;99.90
20141;DHT22;10231;47.702;9.826;2023-05-07T02:04:49;13.20;99.90
20141;DHT22;10231;47.702;9.826;2023-05-07T02:07:14;13.20;99.90
20141;DHT22;10231;47.702;9.826;2023-05-07T02:09:40;13.30;99.90
20141;DHT22;10231;47.702;9.826;2023-05-07T02:12:05;13.30;99.90
20141;DHT22;10231;47.702;9.826;2023-05-07T02:14:31;13.50;99.90
20141;DHT22;10231;47.702;9.826;2023-05-07T02:16:56;13.50;99.90
20141;DHT22;10231;47.702;9.826;2023-05-07T02:19:22;13.40;99.90
20141;DHT22;10231;47.702;9.826;2023-05-07T02:21:47;13.40;99.90
20141;DHT22;10231;47.702;9.826;2023-05-07T02:24:13;13.30;99.90
20141;DHT22;10231;47.702;9.826;2023-05-07T02:26:42;13.20;99.90
20141;DHT22;10231;47.702;9.826;2023-05-07T02:29:07;13.20;99.90
20141;DHT22;10231;47.702;9.826;2023-05-07T02:31:33;13.10;99.90
20141;DHT22;10231;47.702;9.826;2023-05-07T02:34:00;13.10;99.90
20141;DHT22;10231;47.702;9.826;2023-05-07T02:36:25;13.00;99.90
20141;DHT22;10231;47.702;9.826;2023-05-07T02:38:52;12.90;99.90
20141;DHT22;10231;47.702;9.826;2023-05-07T02:41:17;12.90;99.90
20141;DHT22;10231;47.702;9.826;2023-05-07T02:43:43;13.00;99.90
20141;DHT22;10231;47.702;9.826;2023-05-07T02:46:09;12.90;99.90
20141;DHT22;10231;47.702;9.826;2023-05-07T02:48:35;12.90;99.90
20141;DHT22;10231;47.702;9.826;2023-05-07T02:51:01;12.80;99.90
20141;DHT22;10231;47.702;9.826;2023-05-07T02:53:27;12.90;99.90
20141;DHT22;10231;47.702;9.826;2023-05-07T02:55:53;12.90;99.90
20141;DHT22;10231;47.702;9.826;2023-05-07T02:58:19;12.90;99.90
20141;DHT22;10231;47.702;9.826;2023-05-07T03:00:45;12.90;99.90
20141;DHT22;10231;47.702;9.826;2023-05-07T03:03:10;12.80;99.90
20141;DHT22;10231;47.702;9.826;2023-05-07T03:05:36;12.90;99.90
20141;DHT22;10231;47.702;9.826;2023-05-07T03:08:02;13.00;99.90
20141;DHT22;10231;47.702;9.826;2023-05-07T03:10:29;12.90;99.90
20141;DHT22;10231;47.702;9.826;2023-05-07T03:12:55;12.90;99.90
20141;DHT22;10231;47.702;9.826;2023-05-07T03:15:20;12.70;99.90
20141;DHT22;10231;47.702;9.826;2023-05-07T03:17:47;12.70;99.90
20141;DHT22;10231;47.702;9.826;2023-05-07T03:20:12;12.80;99.90
20141;DHT22;10231;47.702;9.826;2023-05-07T03:22:38;12.70;99.90
20141;DHT22;10231;47.702;9.826;2023-05-07T03:25:04;12.60;99.90
20141;DHT22;10231;47.702;9.826;2023-05-07T03:27:30;12.60;99.90
20141;DHT22;10231;47.702;9.826;2023-05-07T03:29:56;12.60;99.90
20141;DHT22;10231;47.702;9.826;2023-05-07T03:32:21;12.60;99.90
20141;DHT22;10231;47.702;9.826;2023-05-07T03:34:47;12.50;99.90
20141;DHT22;10231;47.702;9.826;2023-05-07T03:37:12;12.50;99.90
20141;DHT22;10231;47.702;9.826;2023-05-07T03:39:38;12.40;99.90
20141;DHT22;10231;47.702;9.826;2023-05-07T03:42:03;12.40;99.90
20141;DHT22;10231;47.702;9.826;2023-05-07T03:44:29;12.40;99.90
20141;DHT22;10231;47.702;9.826;2023-05-07T03:46:54;12.40;99.90
20141;DHT22;10231;47.702;9.826;2023-05-07T03:49:20;12.40;99.90
20141;DHT22;10231;47.702;9.826;2023-05-07T03:51:46;12.40;99.90
20141;DHT22;10231;47.702;9.826;2023-05-07T03:54:12;12.50;99.90
20141;DHT22;10231;47.702;9.826;2023-05-07T03:56:37;12.40;99.90
20141;DHT22;10231;47.702;9.826;2023-05-07T03:59:03;12.40;99.90
20141;DHT22;10231;47.702;9.826;2023-05-07T04:01:28;12.30;99.90
20141;DHT22;10231;47.702;9.826;2023-05-07T04:03:54;12.40;99.90
20141;DHT22;10231;47.702;9.826;2023-05-07T04:06:19;12.30;99.90
20141;DHT22;10231;47.702;9.826;2023-05-07T04:08:45;12.30;99.90
20141;DHT22;10231;47.702;9.826;2023-05-07T04:11:10;12.30;99.90
20141;DHT22;10231;47.702;9.826;2023-05-07T04:13:36;12.20;99.90
20141;DHT22;10231;47.702;9.826;2023-05-07T04:16:03;12.30;99.90
20141;DHT22;10231;47.702;9.826;2023-05-07T04:18:29;12.30;99.90
20141;DHT22;10231;47.702;9.826;2023-05-07T04:20:55;12.30;99.90
20141;DHT22;10231;47.702;9.826;2023-05-07T04:23:20;12.20;99.90
20141;DHT22;10231;47.702;9.826;2023-05-07T04:25:46;12.20;99.90
20141;DHT22;10231;47.702;9.826;2023-05-07T04:28:12;12.30;99.90
20141;DHT22;10231;47.702;9.826;2023-05-07T04:30:38;12.30;99.90
20141;DHT22;10231;47.702;9.826;2023-05-07T04:33:04;12.30;99.90
20141;DHT22;10231;47.702;9.826;2023-05-07T04:35:29;12.20;99.90
20141;DHT22;10231;47.702;9.826;2023-05-07T04:37:55;12.20;99.90
20141;DHT22;10231;47.702;9.826;2023-05-07T04:40:20;12.10;99.90
20141;DHT22;10231;47.702;9.826;2023-05-07T04:42:46;12.10;99.90
20141;DHT22;10231;47.702;9.826;2023-05-07T04:45:12;12.10;99.90
20141;DHT22;10231;47.702;9.826;2023-05-07T04:47:38;12.10;99.90
20141;DHT22;10231;47.702;9.826;2023-05-07T04:50:04;12.00;99.90
20141;DHT22;10231;47.702;9.826;2023-05-07T04:52:30;12.20;99.90
20141;DHT22;10231;47.702;9.826;2023-05-07T04:54:56;12.10;99.90
20141;DHT22;10231;47.702;9.826;2023-05-07T04:57:21;12.10;99.90
20141;DHT22;10231;47.702;9.826;2023-05-07T04:59:47;12.10;99.90
20141;DHT22;10231;47.702;9.826;2023-05-07T05:02:12;12.20;99.90
20141;DHT22;10231;47.702;9.826;2023-05-07T05:04:38;12.30;99.90
20141;DHT22;10231;47.702;9.826;2023-05-07T05:07:03;12.40;99.90
20141;DHT22;10231;47.702;9.826;2023-05-07T05:09:29;12.50;99.90
20141;DHT22;10231;47.702;9.826;2023-05-07T05:11:55;12.50;99.90
20141;DHT22;10231;47.702;9.826;2023-05-07T05:14:21;12.60;99.90
20141;DHT22;10231;47.702;9.826;2023-05-07T05:16:46;12.70;99.90
20141;DHT22;10231;47.702;9.826;2023-05-07T05:19:12;12.80;99.90
20141;DHT22;10231;47.702;9.826;2023-05-07T05:21:37;12.90;99.90
20141;DHT22;10231;47.702;9.826;2023-05-07T05:24:03;12.90;99.90
20141;DHT22;10231;47.702;9.826;2023-05-07T05:26:29;12.90;99.90
20141;DHT22;10231;47.702;9.826;2023-05-07T05:28:54;12.90;99.90
20141;DHT22;10231;47.702;9.826;2023-05-07T05:31:20;12.90;99.90
20141;DHT22;10231;47.702;9.826;2023-05-07T05:33:46;13.00;99.90
20141;DHT22;10231;47.702;9.826;2023-05-07T05:36:12;13.00;99.90
20141;DHT22;10231;47.702;9.826;2023-05-07T05:38:38;13.10;99.90
20141;DHT22;10231;47.702;9.826;2023-05-07T05:41:04;13.20;99.90
20141;DHT22;10231;47.702;9.826;2023-05-07T05:43:30;13.30;99.90
20141;DHT22;10231;47.702;9.826;2023-05-07T05:45:56;13.30;99.90
20141;DHT22;10231;47.702;9.826;2023-05-07T05:48:22;13.40;99.90
20141;DHT22;10231;47.702;9.826;2023-05-07T05:50:48;13.50;99.90
20141;DHT22;10231;47.702;9.826;2023-05-07T05:53:13;13.60;99.90
20141;DHT22;10231;47.702;9.826;2023-05-07T05:55:39;13.70;99.90
20141;DHT22;10231;47.702;9.826;2023-05-07T05:58:05;13.70;99.90
20141;DHT22;10231;47.702;9.826;2023-05-07T06:00:31;13.70;99.90
20141;DHT22;10231;47.702;9.826;2023-05-07T06:02:56;13.80;99.90
20141;DHT22;10231;47.702;9.826;2023-05-07T06:05:22;13.90;99.90
20141;DHT22;10231;47.702;9.826;2023-05-07T06:07:48;14.00;99.90
20141;DHT22;10231;47.702;9.826;2023-05-07T06:10:13;14.00;99.90
20141;DHT22;10231;47.702;9.826;2023-05-07T06:12:39;14.10;99.90
20141;DHT22;10231;47.702;9.826;2023-05-07T06:15:05;14.10;99.90
20141;DHT22;10231;47.702;9.826;2023-05-07T06:17:31;14.20;99.90
20141;DHT22;10231;47.702;9.826;2023-05-07T06:19:57;14.20;99.90
20141;DHT22;10231;47.702;9.826;2023-05-07T06:22:22;14.30;99.90
20141;DHT22;10231;47.702;9.826;2023-05-07T06:24:48;14.30;99.90
20141;DHT22;10231;47.702;9.826;2023-05-07T06:27:13;14.40;99.90
20141;DHT22;10231;47.702;9.826;2023-05-07T06:29:39;14.50;99.90
20141;DHT22;10231;47.702;9.826;2023-05-07T06:32:11;14.60;99.90
20141;DHT22;10231;47.702;9.826;2023-05-07T06:34:37;14.70;99.90
20141;DHT22;10231;47.702;9.826;2023-05-07T06:37:03;14.80;99.90
20141;DHT22;10231;47.702;9.826;2023-05-07T06:39:29;14.90;99.90
20141;DHT22;10231;47.702;9.826;2023-05-07T06:41:54;14.90;99.90
20141;DHT22;10231;47.702;9.826;2023-05-07T06:44:20;14.90;99.90
20141;DHT22;10231;47.702;9.826;2023-05-07T06:46:45;14.90;99.90
20141;DHT22;10231;47.702;9.826;2023-05-07T06:49:14;15.10;99.90
20141;DHT22;10231;47.702;9.826;2023-05-07T06:51:40;15.10;99.90
20141;DHT22;10231;47.702;9.826;2023-05-07T06:54:06;15.10;99.90
20141;DHT22;10231;47.702;9.826;2023-05-07T06:56:32;15.10;99.90
20141;DHT22;10231;47.702;9.826;2023-05-07T06:58:57;15.10;99.90
20141;DHT22;10231;47.702;9.826;2023-05-07T07:01:23;15.10;99.90
20141;DHT22;10231;47.702;9.826;2023-05-07T07:03:49;15.20;99.90
20141;DHT22;10231;47.702;9.826;2023-05-07T07:06:14;15.30;99.90
20141;DHT22;10231;47.702;9.826;2023-05-07T07:08:40;15.30;99.90
20141;DHT22;10231;47.702;9.826;2023-05-07T07:11:06;15.40;99.90
20141;DHT22;10231;47.702;9.826;2023-05-07T07:13:31;15.50;99.90
20141;DHT22;10231;47.702;9.826;2023-05-07T07:15:57;15.50;99.90
20141;DHT22;10231;47.702;9.826;2023-05-07T07:18:23;15.50;99.90
20141;DHT22;10231;47.702;9.826;2023-05-07T07:20:48;15.60;99.90
20141;DHT22;10231;47.702;9.826;2023-05-07T07:23:14;15.60;99.90
20141;DHT22;10231;47.702;9.826;2023-05-07T07:25:40;15.60;99.90
20141;DHT22;10231;47.702;9.826;2023-05-07T07:28:06;15.70;99.90
20141;DHT22;10231;47.702;9.826;2023-05-07T07:30:31;15.70;99.90
20141;DHT22;10231;47.702;9.826;2023-05-07T07:32:57;16.00;99.90
20141;DHT22;10231;47.702;9.826;2023-05-07T07:35:28;16.00;99.90
20141;DHT22;10231;47.702;9.826;2023-05-07T07:37:53;16.00;99.90
20141;DHT22;10231;47.702;9.826;2023-05-07T07:40:19;16.00;99.90
20141;DHT22;10231;47.702;9.826;2023-05-07T07:42:45;16.10;99.90
20141;DHT22;10231;47.702;9.826;2023-05-07T07:45:11;16.20;99.90
20141;DHT22;10231;47.702;9.826;2023-05-07T07:47:37;16.30;99.90
20141;DHT22;10231;47.702;9.826;2023-05-07T07:50:02;16.40;99.90
20141;DHT22;10231;47.702;9.826;2023-05-07T07:52:28;16.40;99.90
20141;DHT22;10231;47.702;9.826;2023-05-07T07:54:54;16.40;99.90
20141;DHT22;10231;47.702;9.826;2023-05-07T07:57:19;16.40;99.90
20141;DHT22;10231;47.702;9.826;2023-05-07T07:59:45;16.40;99.90
20141;DHT22;10231;47.702;9.826;2023-05-07T08:02:10;16.40;99.90
20141;DHT22;10231;47.702;9.826;2023-05-07T08:04:36;16.40;99.90
20141;DHT22;10231;47.702;9.826;2023-05-07T08:07:02;16.40;99.90
20141;DHT22;10231;47.702;9.826;2023-05-07T08:09:28;16.50;99.90
20141;DHT22;10231;47.702;9.826;2023-05-07T08:11:54;16.60;99.90
20141;DHT22;10231;47.702;9.826;2023-05-07T08:14:19;16.60;99.90
20141;DHT22;10231;47.702;9.826;2023-05-07T08:16:45;16.70;99.90
20141;DHT22;10231;47.702;9.826;2023-05-07T08:19:10;16.70;99.90
20141;DHT22;10231;47.702;9.826;2023-05-07T08:21:39;16.80;99.90
20141;DHT22;10231;47.702;9.826;2023-05-07T08:24:05;16.80;99.90
20141;DHT22;10231;47.702;9.826;2023-05-07T08:26:30;16.90;99.90
20141;DHT22;10231;47.702;9.826;2023-05-07T08:28:56;16.90;99.90
20141;DHT22;10231;47.702;9.826;2023-05-07T08:31:21;16.90;99.90
20141;DHT22;10231;47.702;9.826;2023-05-07T08:33:47;17.00;99.90
20141;DHT22;10231;47.702;9.826;2023-05-07T08:36:12;16.90;99.90
20141;DHT22;10231;47.702;9.826;2023-05-07T08:38:38;16.90;99.90
20141;DHT22;10231;47.702;9.826;2023-05-07T08:41:06;17.00;99.90
20141;DHT22;10231;47.702;9.826;2023-05-07T08:43:33;17.10;99.90
20141;DHT22;10231;47.702;9.826;2023-05-07T08:46:01;17.10;99.90
20141;DHT22;10231;47.702;9.826;2023-05-07T08:48:29;17.20;99.90
20141;DHT22;10231;47.702;9.826;2023-05-07T08:50:55;17.30;99.90
20141;DHT22;10231;47.702;9.826;2023-05-07T08:53:21;17.40;99.90
20141;DHT22;10231;47.702;9.826;2023-05-07T08:55:47;17.40;99.90
20141;DHT22;10231;47.702;9.826;2023-05-07T08:58:13;17.40;99.90
20141;DHT22;10231;47.702;9.826;2023-05-07T09:00:39;17.50;99.90
20141;DHT22;10231;47.702;9.826;2023-05-07T09:03:05;17.60;99.90
20141;DHT22;10231;47.702;9.826;2023-05-07T09:05:31;17.60;99.90
20141;DHT22;10231;47.702;9.826;2023-05-07T09:07:59;17.70;99.90
20141;DHT22;10231;47.702;9.826;2023-05-07T09:10:26;17.70;99.90
20141;DHT22;10231;47.702;9.826;2023-05-07T09:12:52;17.70;99.90
20141;DHT22;10231;47.702;9.826;2023-05-07T09:15:18;17.80;99.90
20141;DHT22;10231;47.702;9.826;2023-05-07T09:17:44;17.80;99.90
20141;DHT22;10231;47.702;9.826;2023-05-07T09:20:10;17.80;99.90
20141;DHT22;10231;47.702;9.826;2023-05-07T09:22:38;17.70;99.90
20141;DHT22;10231;47.702;9.826;2023-05-07T09:25:06;17.70;99.90
20141;DHT22;10231;47.702;9.826;2023-05-07T09:27:32;17.80;99.90
20141;DHT22;10231;47.702;9.826;2023-05-07T09:29:59;17.90;99.90
20141;DHT22;10231;47.702;9.826;2023-05-07T09:32:25;17.90;99.90
20141;DHT22;10231;47.702;9.826;2023-05-07T09:34:50;17.90;99.90
20141;DHT22;10231;47.702;9.826;2023-05-07T09:37:16;18.00;99.90
20141;DHT22;10231;47.702;9.826;2023-05-07T09:39:43;18.00;99.90
20141;DHT22;10231;47.702;9.826;2023-05-07T09:42:09;17.90;99.90
20141;DHT22;10231;47.702;9.826;2023-05-07T09:44:35;17.80;99.90
20141;DHT22;10231;47.702;9.826;2023-05-07T09:47:02;17.80;99.90
20141;DHT22;10231;47.702;9.826;2023-05-07T09:49:30;17.90;99.90
20141;DHT22;10231;47.702;9.826;2023-05-07T09:52:00;18.10;99.90
20141;DHT22;10231;47.702;9.826;2023-05-07T09:54:26;18.20;99.90
20141;DHT22;10231;47.702;9.826;2023-05-07T09:56:54;18.20;99.90
20141;DHT22;10231;47.702;9.826;2023-05-07T09:59:21;18.20;99.90
20141;DHT22;10231;47.702;9.826;2023-05-07T10:01:46;18.20;99.90
20141;DHT22;10231;47.702;9.826;2023-05-07T10:04:12;18.20;99.90
20141;DHT22;10231;47.702;9.826;2023-05-07T10:06:39;18.40;99.90
20141;DHT22;10231;47.702;9.826;2023-05-07T10:09:05;18.30;99.90
20141;DHT22;10231;47.702;9.826;2023-05-07T10:11:34;18.40;99.90
20141;DHT22;10231;47.702;9.826;2023-05-07T10:14:01;18.40;99.90
20141;DHT22;10231;47.702;9.826;2023-05-07T10:16:28;18.30;99.90
20141;DHT22;10231;47.702;9.826;2023-05-07T10:18:56;18.40;99.90
20141;DHT22;10231;47.702;9.826;2023-05-07T10:21:23;18.40;99.90
20141;DHT22;10231;47.702;9.826;2023-05-07T10:26:23;18.50;99.90
20141;DHT22;10231;47.702;9.826;2023-05-07T10:28:56;18.50;99.90
20141;DHT22;10231;47.702;9.826;2023-05-07T10:31:37;18.60;99.90
20141;DHT22;10231;47.702;9.826;2023-05-07T10:34:10;18.80;99.90
20141;DHT22;10231;47.702;9.826;2023-05-07T10:36:36;18.90;99.90
20141;DHT22;10231;47.702;9.826;2023-05-07T10:39:02;18.80;99.90
20141;DHT22;10231;47.702;9.826;2023-05-07T10:41:28;18.70;99.90
20141;DHT22;10231;47.702;9.826;2023-05-07T10:43:53;18.80;99.90
20141;DHT22;10231;47.702;9.826;2023-05-07T10:46:21;18.80;99.90
20141;DHT22;10231;47.702;9.826;2023-05-07T10:51:34;18.90;99.90
20141;DHT22;10231;47.702;9.826;2023-05-07T10:56:35;18.90;99.90
20141;DHT22;10231;47.702;9.826;2023-05-07T11:01:58;19.10;99.90
20141;DHT22;10231;47.702;9.826;2023-05-07T11:04:24;19.10;99.90
20141;DHT22;10231;47.702;9.826;2023-05-07T11:12:17;19.20;99.90
20141;DHT22;10231;47.702;9.826;2023-05-07T11:14:44;19.30;99.90
20141;DHT22;10231;47.702;9.826;2023-05-07T11:17:10;19.40;99.90
20141;DHT22;10231;47.702;9.826;2023-05-07T11:19:53;19.30;99.90
20141;DHT22;10231;47.702;9.826;2023-05-07T11:22:36;19.30;99.90
20141;DHT22;10231;47.702;9.826;2023-05-07T11:25:03;19.40;99.90
20141;DHT22;10231;47.702;9.826;2023-05-07T11:27:29;19.40;99.90
20141;DHT22;10231;47.702;9.826;2023-05-07T11:29:55;19.50;99.90
20141;DHT22;10231;47.702;9.826;2023-05-07T11:34:53;19.70;99.90
20141;DHT22;10231;47.702;9.826;2023-05-07T11:37:20;19.80;99.90
20141;DHT22;10231;47.702;9.826;2023-05-07T11:39:45;19.90;99.90
20141;DHT22;10231;47.702;9.826;2023-05-07T11:42:31;19.90;99.90
20141;DHT22;10231;47.702;9.826;2023-05-07T11:44:57;19.90;99.90
20141;DHT22;10231;47.702;9.826;2023-05-07T11:47:24;19.90;99.90
20141;DHT22;10231;47.702;9.826;2023-05-07T11:49:52;19.90;99.90
20141;DHT22;10231;47.702;9.826;2023-05-07T11:52:19;19.90;99.90
20141;DHT22;10231;47.702;9.826;2023-05-07T11:54:52;19.90;99.90
20141;DHT22;10231;47.702;9.826;2023-05-07T11:57:18;20.00;99.90
20141;DHT22;10231;47.702;9.826;2023-05-07T11:59:43;20.10;99.90
20141;DHT22;10231;47.702;9.826;2023-05-07T12:02:16;20.20;99.90
20141;DHT22;10231;47.702;9.826;2023-05-07T12:04:42;20.20;99.90
20141;DHT22;10231;47.702;9.826;2023-05-07T12:07:11;20.30;99.90
20141;DHT22;10231;47.702;9.826;2023-05-07T12:09:38;20.40;99.90
20141;DHT22;10231;47.702;9.826;2023-05-07T12:12:04;20.60;99.90
20141;DHT22;10231;47.702;9.826;2023-05-07T12:14:30;20.70;99.90
20141;DHT22;10231;47.702;9.826;2023-05-07T12:16:55;20.80;99.90
20141;DHT22;10231;47.702;9.826;2023-05-07T12:19:21;20.90;99.90
20141;DHT22;10231;47.702;9.826;2023-05-07T12:21:47;20.90;99.90
20141;DHT22;10231;47.702;9.826;2023-05-07T12:24:14;20.90;99.90
20141;DHT22;10231;47.702;9.826;2023-05-07T12:26:40;20.90;99.90
20141;DHT22;10231;47.702;9.826;2023-05-07T12:29:06;21.00;99.90
20141;DHT22;10231;47.702;9.826;2023-05-07T12:31:32;21.10;99.90
20141;DHT22;10231;47.702;9.826;2023-05-07T12:33:57;21.10;99.90
20141;DHT22;10231;47.702;9.826;2023-05-07T12:36:23;21.10;99.90
20141;DHT22;10231;47.702;9.826;2023-05-07T12:38:51;21.20;99.90
20141;DHT22;10231;47.702;9.826;2023-05-07T12:41:16;21.20;99.90
20141;DHT22;10231;47.702;9.826;2023-05-07T12:43:45;21.30;99.90
20141;DHT22;10231;47.702;9.826;2023-05-07T12:46:11;21.30;99.90
20141;DHT22;10231;47.702;9.826;2023-05-07T12:48:44;21.30;99.90
20141;DHT22;10231;47.702;9.826;2023-05-07T12:51:11;21.30;99.90
20141;DHT22;10231;47.702;9.826;2023-05-07T12:53:42;21.40;99.90
20141;DHT22;10231;47.702;9.826;2023-05-07T12:56:08;21.40;99.90
20141;DHT22;10231;47.702;9.826;2023-05-07T12:58:35;21.30;99.90
20141;DHT22;10231;47.702;9.826;2023-05-07T13:01:07;21.30;99.90
20141;DHT22;10231;47.702;9.826;2023-05-07T13:03:34;21.30;99.90
20141;DHT22;10231;47.702;9.826;2023-05-07T13:06:18;21.40;99.90
20141;DHT22;10231;47.702;9.826;2023-05-07T13:08:44;21.50;99.90
20141;DHT22;10231;47.702;9.826;2023-05-07T13:11:11;21.60;99.90
20141;DHT22;10231;47.702;9.826;2023-05-07T13:13:38;21.70;99.90
20141;DHT22;10231;47.702;9.826;2023-05-07T13:16:05;22.00;99.90
20141;DHT22;10231;47.702;9.826;2023-05-07T13:18:32;22.20;99.90
20141;DHT22;10231;47.702;9.826;2023-05-07T13:20:58;22.20;99.90
20141;DHT22;10231;47.702;9.826;2023-05-07T13:23:24;22.20;99.90
20141;DHT22;10231;47.702;9.826;2023-05-07T13:25:50;22.30;99.90
20141;DHT22;10231;47.702;9.826;2023-05-07T13:28:16;22.50;99.90
20141;DHT22;10231;47.702;9.826;2023-05-07T13:30:42;22.60;99.90
20141;DHT22;10231;47.702;9.826;2023-05-07T13:33:08;22.70;99.90
20141;DHT22;10231;47.702;9.826;2023-05-07T13:35:34;22.80;99.90
20141;DHT22;10231;47.702;9.826;2023-05-07T13:37:59;22.80;99.90
20141;DHT22;10231;47.702;9.826;2023-05-07T13:40:25;22.80;99.90
20141;DHT22;10231;47.702;9.826;2023-05-07T13:42:51;22.70;99.90
20141;DHT22;10231;47.702;9.826;2023-05-07T13:45:18;22.90;99.90
20141;DHT22;10231;47.702;9.826;2023-05-07T13:47:44;22.90;99.90
20141;DHT22;10231;47.702;9.826;2023-05-07T13:50:10;22.90;99.90
20141;DHT22;10231;47.702;9.826;2023-05-07T13:52:37;23.00;99.90
20141;DHT22;10231;47.702;9.826;2023-05-07T13:55:03;23.00;99.90
20141;DHT22;10231;47.702;9.826;2023-05-07T13:57:29;23.00;99.90
20141;DHT22;10231;47.702;9.826;2023-05-07T13:59:54;23.20;99.90
20141;DHT22;10231;47.702;9.826;2023-05-07T14:02:20;23.30;99.90
20141;DHT22;10231;47.702;9.826;2023-05-07T14:04:46;23.50;99.90
20141;DHT22;10231;47.702;9.826;2023-05-07T14:07:11;23.60;99.90
20141;DHT22;10231;47.702;9.826;2023-05-07T14:09:37;23.70;99.30
20141;DHT22;10231;47.702;9.826;2023-05-07T14:12:03;23.90;99.90
20141;DHT22;10231;47.702;9.826;2023-05-07T14:14:28;24.00;98.00
20141;DHT22;10231;47.702;9.826;2023-05-07T14:16:54;24.20;98.30
20141;DHT22;10231;47.702;9.826;2023-05-07T14:19:19;24.30;97.70
20141;DHT22;10231;47.702;9.826;2023-05-07T14:21:45;24.40;96.50
20141;DHT22;10231;47.702;9.826;2023-05-07T14:24:10;24.70;96.50
20141;DHT22;10231;47.702;9.826;2023-05-07T14:26:36;24.90;96.70
20141;DHT22;10231;47.702;9.826;2023-05-07T14:29:03;24.90;94.30
20141;DHT22;10231;47.702;9.826;2023-05-07T14:31:28;24.80;93.70
20141;DHT22;10231;47.702;9.826;2023-05-07T14:33:54;24.80;93.00
20141;DHT22;10231;47.702;9.826;2023-05-07T14:36:20;24.60;93.90
20141;DHT22;10231;47.702;9.826;2023-05-07T14:38:47;24.50;93.60
20141;DHT22;10231;47.702;9.826;2023-05-07T14:41:12;24.40;94.30
20141;DHT22;10231;47.702;9.826;2023-05-07T14:43:38;24.40;95.30
20141;DHT22;10231;47.702;9.826;2023-05-07T14:46:03;24.50;96.60
20141;DHT22;10231;47.702;9.826;2023-05-07T14:48:29;24.70;94.50
20141;DHT22;10231;47.702;9.826;2023-05-07T14:50:54;24.80;91.20
20141;DHT22;10231;47.702;9.826;2023-05-07T14:53:21;24.80;92.30
20141;DHT22;10231;47.702;9.826;2023-05-07T14:55:47;24.90;93.00
20141;DHT22;10231;47.702;9.826;2023-05-07T14:58:13;24.70;93.70
20141;DHT22;10231;47.702;9.826;2023-05-07T15:00:39;24.60;92.50
20141;DHT22;10231;47.702;9.826;2023-05-07T15:03:06;24.40;93.60
20141;DHT22;10231;47.702;9.826;2023-05-07T15:05:33;24.10;93.10
20141;DHT22;10231;47.702;9.826;2023-05-07T15:07:58;23.70;91.00
20141;DHT22;10231;47.702;9.826;2023-05-07T15:10:24;23.50;91.60
20141;DHT22;10231;47.702;9.826;2023-05-07T15:12:50;23.30;92.40
20141;DHT22;10231;47.702;9.826;2023-05-07T15:15:15;23.10;92.30
20141;DHT22;10231;47.702;9.826;2023-05-07T15:17:41;23.00;95.70
20141;DHT22;10231;47.702;9.826;2023-05-07T15:20:07;22.90;95.90
20141;DHT22;10231;47.702;9.826;2023-05-07T15:22:33;22.80;96.40
20141;DHT22;10231;47.702;9.826;2023-05-07T15:24:58;22.80;94.30
20141;DHT22;10231;47.702;9.826;2023-05-07T15:27:24;22.80;94.20
20141;DHT22;10231;47.702;9.826;2023-05-07T15:29:51;22.60;95.20
20141;DHT22;10231;47.702;9.826;2023-05-07T15:32:17;22.50;95.10
20141;DHT22;10231;47.702;9.826;2023-05-07T15:34:43;22.50;95.10
20141;DHT22;10231;47.702;9.826;2023-05-07T15:37:08;22.50;95.40
20141;DHT22;10231;47.702;9.826;2023-05-07T15:39:34;22.30;96.30
20141;DHT22;10231;47.702;9.826;2023-05-07T15:41:59;22.10;96.60